createdAt,value
2023-05-11T00:00:02.109Z,0.45
2023-05-11T00:01:02.161Z,0.62
2023-05-11T00:02:02.239Z,0.81
2023-05-11T00:03:02.341Z,0.54
2023-05-11T00:04:02.458Z,0.52
2023-05-11T00:05:02.333Z,0.45
2023-05-11T00:06:02.398Z,0.59
2023-05-11T00:07:02.413Z,0.66
2023-05-11T00:08:02.462Z,0.34
2023-05-11T00:09:02.495Z,0.45
2023-05-11T00:10:02.545Z,0.49
2023-05-11T00:11:02.559Z,0.31
2023-05-11T00:12:02.596Z,0.28
2023-05-11T00:13:02.656Z,0.44
2023-05-11T00:14:02.733Z,0.58
2023-05-11T00:15:02.799Z,0.67
2023-05-11T00:16:02.843Z,0.49
2023-05-11T00:17:02.857Z,0.55
2023-05-11T00:18:03.004Z,0.47
2023-05-11T00:19:03.165Z,0.42
2023-05-11T00:20:03.009Z,0.60
2023-05-11T00:21:03.068Z,0.39
2023-05-11T00:22:03.109Z,0.77
2023-05-11T00:23:03.162Z,0.72
2023-05-11T00:24:03.234Z,0.49
2023-05-11T00:25:03.288Z,0.43
2023-05-11T00:26:03.371Z,0.66
2023-05-11T00:27:03.431Z,0.49
2023-05-11T00:28:03.484Z,0.43
2023-05-11T00:29:03.513Z,0.45
2023-05-11T00:30:03.630Z,0.30
2023-05-11T00:31:03.664Z,0.47
2023-05-11T00:32:03.706Z,0.63
2023-05-11T00:33:03.842Z,0.51
2023-05-11T00:34:03.829Z,0.43
2023-05-11T00:35:03.886Z,0.39
2023-05-11T00:36:03.936Z,0.28
2023-05-11T00:37:03.988Z,0.40
2023-05-11T00:38:04.007Z,0.49
2023-05-11T00:39:04.081Z,0.23
2023-05-11T00:40:04.102Z,0.54
2023-05-11T00:41:04.165Z,0.38
2023-05-11T00:42:04.243Z,0.38
2023-05-11T00:43:04.254Z,0.44
2023-05-11T00:44:04.324Z,0.46
2023-05-11T00:45:04.351Z,0.36
2023-05-11T00:46:04.389Z,0.49
2023-05-11T00:47:04.660Z,0.50
2023-05-11T00:48:04.544Z,0.50
2023-05-11T00:49:04.476Z,0.42
2023-05-11T00:50:04.560Z,0.29
2023-05-11T00:51:04.603Z,0.25
2023-05-11T00:52:04.608Z,0.48
2023-05-11T00:53:04.669Z,0.45
2023-05-11T00:54:04.705Z,0.47
2023-05-11T00:55:04.783Z,0.39
2023-05-11T00:56:04.803Z,0.40
2023-05-11T00:57:04.852Z,0.55
2023-05-11T00:58:04.850Z,0.27
2023-05-11T00:59:04.916Z,0.46
2023-05-11T01:00:04.961Z,0.47
2023-05-11T01:01:05.050Z,0.28
2023-05-11T01:02:05.055Z,0.45
2023-05-11T01:03:05.111Z,0.30
2023-05-11T01:04:05.119Z,0.55
2023-05-11T01:05:05.176Z,0.51
2023-05-11T01:06:05.206Z,0.36
2023-05-11T01:07:05.225Z,0.36
2023-05-11T01:08:05.273Z,0.43
2023-05-11T01:09:05.322Z,0.55
2023-05-11T01:10:05.338Z,0.27
2023-05-11T01:11:05.409Z,0.34
2023-05-11T01:12:05.441Z,0.34
2023-05-11T01:13:05.463Z,0.39
2023-05-11T01:14:05.480Z,0.51
2023-05-11T01:15:05.545Z,0.45
2023-05-11T01:16:05.669Z,0.27
2023-05-11T01:17:05.656Z,0.42
2023-05-11T01:18:05.728Z,0.28
2023-05-11T01:19:05.754Z,0.44
2023-05-11T01:20:05.777Z,0.41
2023-05-11T01:21:05.757Z,0.34
2023-05-11T01:22:05.788Z,0.54
2023-05-11T01:23:05.855Z,0.35
2023-05-11T01:24:05.835Z,0.46
2023-05-11T01:25:05.871Z,0.42
2023-05-11T01:26:05.880Z,0.44
2023-05-11T01:27:05.945Z,0.38
2023-05-11T01:28:05.957Z,0.50
2023-05-11T01:29:05.991Z,0.37
2023-05-11T01:30:06.052Z,0.41
2023-05-11T01:31:06.042Z,0.32
2023-05-11T01:32:06.065Z,0.51
2023-05-11T01:33:06.056Z,0.38
2023-05-11T01:34:06.089Z,0.65
2023-05-11T01:35:06.119Z,0.33
2023-05-11T01:36:06.086Z,0.33
2023-05-11T01:37:06.096Z,0.45
2023-05-11T01:38:06.094Z,0.50
2023-05-11T01:39:06.132Z,0.48
2023-05-11T01:40:06.146Z,0.51
2023-05-11T01:41:06.152Z,0.43
2023-05-11T01:42:06.171Z,0.51
2023-05-11T01:43:06.170Z,0.28
2023-05-11T01:44:06.189Z,0.33
2023-05-11T01:45:06.259Z,0.31
2023-05-11T01:46:06.338Z,0.51
2023-05-11T01:47:06.281Z,0.48
2023-05-11T01:48:06.270Z,0.28
2023-05-11T01:49:06.235Z,0.32
2023-05-11T01:50:06.276Z,0.32
2023-05-11T01:51:06.295Z,0.24
2023-05-11T01:52:06.302Z,0.33
2023-05-11T01:53:06.301Z,0.34
2023-05-11T01:54:06.295Z,0.29
2023-05-11T01:55:06.312Z,0.43
2023-05-11T01:56:06.312Z,0.29
2023-05-11T01:57:06.302Z,0.31
2023-05-11T01:58:06.332Z,0.32
2023-05-11T01:59:06.297Z,0.50
2023-05-11T02:00:06.345Z,0.40
2023-05-11T02:01:06.370Z,0.24
2023-05-11T02:02:06.336Z,0.33
2023-05-11T02:03:06.458Z,0.36
2023-05-11T02:04:06.319Z,0.25
2023-05-11T02:05:06.368Z,0.42
2023-05-11T02:06:06.387Z,0.32
2023-05-11T02:07:06.397Z,0.28
2023-05-11T02:08:06.374Z,0.25
2023-05-11T02:09:06.377Z,0.31
2023-05-11T02:10:06.372Z,0.25
2023-05-11T02:11:06.369Z,0.36
2023-05-11T02:12:06.355Z,0.40
2023-05-11T02:13:06.410Z,0.38
2023-05-11T02:14:06.393Z,0.28
2023-05-11T02:15:06.386Z,0.18
2023-05-11T02:16:06.481Z,0.27
2023-05-11T02:17:06.443Z,0.31
2023-05-11T02:18:06.478Z,0.31
2023-05-11T02:19:06.513Z,0.33
2023-05-11T02:20:06.437Z,0.11
2023-05-11T02:21:06.417Z,2.24
2023-05-11T02:22:06.441Z,0.16
2023-05-11T02:23:06.482Z,0.36
2023-05-11T02:24:06.440Z,0.34
2023-05-11T02:25:06.507Z,0.27
2023-05-11T02:26:06.496Z,0.15
2023-05-11T02:27:06.519Z,0.33
2023-05-11T02:28:06.544Z,0.23
2023-05-11T02:29:06.535Z,0.43
2023-05-11T02:30:06.573Z,0.20
2023-05-11T02:31:06.575Z,0.37
2023-05-11T02:32:06.588Z,0.33
2023-05-11T02:33:06.606Z,0.30
2023-05-11T02:34:06.580Z,0.22
2023-05-11T02:35:06.598Z,0.34
2023-05-11T02:36:06.568Z,0.25
2023-05-11T02:37:06.553Z,0.28
2023-05-11T02:38:06.550Z,0.15
2023-05-11T02:39:06.608Z,0.46
2023-05-11T02:40:06.661Z,0.31
2023-05-11T02:41:06.551Z,0.24
2023-05-11T02:42:06.556Z,0.27
2023-05-11T02:43:06.549Z,0.17
2023-05-11T02:44:06.574Z,0.37
2023-05-11T02:45:06.557Z,0.53
2023-05-11T02:46:06.544Z,0.31
2023-05-11T02:47:06.614Z,0.41
2023-05-11T02:48:06.629Z,0.15
2023-05-11T02:49:06.586Z,0.63
2023-05-11T02:50:06.614Z,0.36
2023-05-11T02:51:06.694Z,0.31
2023-05-11T02:52:06.745Z,0.29
2023-05-11T02:53:06.806Z,0.26
2023-05-11T02:54:06.872Z,0.27
2023-05-11T02:55:06.922Z,0.26
2023-05-11T02:56:06.963Z,0.51
2023-05-11T02:57:06.996Z,0.19
2023-05-11T02:58:07.222Z,0.51
2023-05-11T02:59:07.152Z,0.25
2023-05-11T03:00:07.216Z,0.36
2023-05-11T03:01:07.347Z,0.37
2023-05-11T03:02:07.458Z,0.21
2023-05-11T03:03:07.456Z,0.35
2023-05-11T03:04:07.409Z,0.51
2023-05-11T03:05:07.408Z,0.21
2023-05-11T03:06:07.382Z,0.36
2023-05-11T03:07:07.396Z,0.35
2023-05-11T03:08:07.397Z,0.17
2023-05-11T03:09:09.954Z,0.32
2023-05-11T03:10:07.398Z,0.17
2023-05-11T03:11:07.393Z,0.27
2023-05-11T03:12:07.368Z,0.30
2023-05-11T03:13:07.367Z,0.20
2023-05-11T03:14:07.377Z,0.19
2023-05-11T03:15:07.380Z,0.41
2023-05-11T03:16:07.405Z,0.29
2023-05-11T03:17:07.373Z,0.25
2023-05-11T03:18:07.366Z,0.22
2023-05-11T03:19:07.387Z,0.25
2023-05-11T03:20:07.336Z,0.18
2023-05-11T03:21:07.321Z,0.27
2023-05-11T03:22:07.323Z,0.17
2023-05-11T03:23:07.311Z,0.32
2023-05-11T03:24:07.360Z,0.21
2023-05-11T03:25:07.320Z,0.33
2023-05-11T03:26:07.287Z,0.31
2023-05-11T03:27:07.278Z,0.38
2023-05-11T03:28:07.274Z,0.29
2023-05-11T03:29:07.291Z,0.28
2023-05-11T03:30:07.271Z,0.40
2023-05-11T03:31:07.269Z,0.34
2023-05-11T03:32:07.280Z,0.19
2023-05-11T03:33:07.277Z,0.13
2023-05-11T03:34:07.219Z,0.16
2023-05-11T03:35:07.266Z,0.33
2023-05-11T03:36:07.219Z,0.23
2023-05-11T03:37:07.206Z,0.25
2023-05-11T03:38:07.224Z,0.30
2023-05-11T03:39:07.204Z,0.21
2023-05-11T03:40:07.189Z,0.22
2023-05-11T03:41:07.194Z,0.15
2023-05-11T03:42:07.174Z,0.16
2023-05-11T03:43:07.156Z,0.34
2023-05-11T03:44:07.169Z,0.32
2023-05-11T03:45:07.157Z,0.24
2023-05-11T03:46:07.191Z,0.19
2023-05-11T03:47:07.175Z,0.21
2023-05-11T03:48:07.136Z,0.32
2023-05-11T03:49:07.150Z,0.18
2023-05-11T03:50:07.100Z,0.18
2023-05-11T03:51:07.152Z,0.25
2023-05-11T03:52:07.113Z,0.34
2023-05-11T03:53:07.108Z,0.12
2023-05-11T03:54:07.108Z,0.44
2023-05-11T03:55:07.090Z,0.28
2023-05-11T03:56:07.085Z,0.33
2023-05-11T03:57:07.061Z,0.21
2023-05-11T03:58:07.074Z,0.11
2023-05-11T03:59:07.071Z,0.10
2023-05-11T04:00:07.032Z,0.11
2023-05-11T04:01:07.061Z,0.30
2023-05-11T04:02:07.050Z,0.25
2023-05-11T04:03:07.157Z,0.27
2023-05-11T04:04:07.243Z,0.30
2023-05-11T04:05:07.036Z,0.27
2023-05-11T04:06:07.036Z,0.17
2023-05-11T04:07:06.998Z,0.17
2023-05-11T04:08:07.022Z,0.22
2023-05-11T04:09:07.002Z,0.26
2023-05-11T04:10:07.011Z,0.25
2023-05-11T04:11:06.999Z,0.19
2023-05-11T04:12:06.990Z,0.23
2023-05-11T04:13:06.993Z,0.25
2023-05-11T04:14:06.941Z,0.73
2023-05-11T04:15:06.946Z,0.18
2023-05-11T04:16:06.954Z,0.18
2023-05-11T04:17:06.927Z,0.20
2023-05-11T04:18:06.936Z,0.19
2023-05-11T04:19:07.211Z,0.35
2023-05-11T04:20:06.926Z,0.27
2023-05-11T04:21:06.936Z,0.26
2023-05-11T04:22:06.913Z,0.16
2023-05-11T04:23:08.416Z,0.23
2023-05-11T04:24:06.882Z,0.46
2023-05-11T04:25:06.865Z,0.21
2023-05-11T04:26:06.870Z,0.56
2023-05-11T04:27:06.869Z,0.38
2023-05-11T04:28:06.869Z,0.32
2023-05-11T04:29:06.832Z,0.31
2023-05-11T04:30:06.853Z,0.36
2023-05-11T04:31:06.870Z,0.24
2023-05-11T04:32:06.845Z,0.36
2023-05-11T04:33:06.859Z,0.33
2023-05-11T04:34:06.801Z,0.27
2023-05-11T04:35:06.816Z,0.18
2023-05-11T04:36:06.834Z,0.34
2023-05-11T04:37:06.835Z,0.35
2023-05-11T04:38:06.826Z,0.36
2023-05-11T04:39:07.935Z,0.20
2023-05-11T04:40:06.769Z,0.33
2023-05-11T04:41:06.774Z,0.39
2023-05-11T04:42:06.766Z,0.43
2023-05-11T04:43:06.754Z,0.29
2023-05-11T04:44:06.741Z,0.29
2023-05-11T04:45:06.739Z,0.28
2023-05-11T04:46:06.750Z,0.32
2023-05-11T04:47:06.812Z,0.23
2023-05-11T04:48:06.825Z,0.44
2023-05-11T04:49:06.727Z,0.41
2023-05-11T04:50:06.723Z,0.44
2023-05-11T04:51:06.691Z,0.56
2023-05-11T04:52:06.689Z,0.27
2023-05-11T04:53:06.690Z,0.38
2023-05-11T04:54:06.697Z,0.31
2023-05-11T04:55:06.696Z,0.24
2023-05-11T04:56:06.692Z,0.53
2023-05-11T04:57:06.655Z,0.26
2023-05-11T04:58:06.779Z,0.35
2023-05-11T04:59:06.665Z,0.23
2023-05-11T05:00:06.721Z,0.25
2023-05-11T05:01:14.016Z,0.40
2023-05-11T05:02:06.637Z,0.49
2023-05-11T05:03:07.497Z,0.27
2023-05-11T05:04:06.723Z,0.58
2023-05-11T05:05:06.641Z,0.32
2023-05-11T05:06:06.631Z,0.15
2023-05-11T05:07:06.599Z,0.25
2023-05-11T05:08:06.621Z,0.23
2023-05-11T05:09:06.586Z,0.40
2023-05-11T05:10:06.562Z,0.30
2023-05-11T05:11:06.575Z,0.43
2023-05-11T05:12:06.580Z,0.32
2023-05-11T05:13:06.587Z,0.27
2023-05-11T05:14:06.557Z,0.12
2023-05-11T05:15:06.529Z,0.27
2023-05-11T05:16:06.520Z,0.21
2023-05-11T05:17:06.572Z,0.48
2023-05-11T05:18:06.574Z,1.80
2023-05-11T05:19:06.719Z,0.49
2023-05-11T05:20:06.662Z,0.40
2023-05-11T05:21:06.725Z,0.50
2023-05-11T05:22:06.786Z,0.32
2023-05-11T05:23:06.807Z,0.42
2023-05-11T05:24:06.859Z,0.36
2023-05-11T05:25:06.915Z,0.33
2023-05-11T05:26:06.964Z,0.45
2023-05-11T05:27:07.039Z,0.30
2023-05-11T05:28:07.070Z,0.43
2023-05-11T05:29:07.114Z,0.31
2023-05-11T05:30:07.135Z,0.65
2023-05-11T05:31:07.215Z,0.40
2023-05-11T05:32:07.207Z,0.24
2023-05-11T05:33:07.338Z,0.86
2023-05-11T05:34:07.370Z,0.43
2023-05-11T05:35:07.393Z,0.45
2023-05-11T05:36:07.422Z,0.55
2023-05-11T05:37:07.433Z,0.51
2023-05-11T05:38:07.550Z,0.44
2023-05-11T05:39:07.436Z,0.55
2023-05-11T05:40:07.474Z,0.49
2023-05-11T05:41:08.002Z,0.64
2023-05-11T05:42:07.499Z,0.85
2023-05-11T05:43:07.540Z,0.98
2023-05-11T05:44:07.630Z,0.72
2023-05-11T05:46:27.058Z,3.59
2023-05-11T05:47:26.850Z,2.26
2023-05-11T05:48:26.835Z,1.73
2023-05-11T05:49:26.855Z,2.31
2023-05-11T05:50:26.815Z,1.28
2023-05-11T05:51:27.074Z,1.43
2023-05-11T05:52:26.841Z,1.29
2023-05-11T05:53:26.802Z,1.21
2023-05-11T05:54:26.792Z,1.62
2023-05-11T05:55:26.798Z,1.11
2023-05-11T05:56:26.816Z,1.82
2023-05-11T05:57:26.785Z,1.30
2023-05-11T05:58:26.800Z,1.06
2023-05-11T05:59:26.780Z,1.79
2023-05-11T06:00:26.798Z,1.32
2023-05-11T06:01:26.796Z,1.38
2023-05-11T06:02:26.873Z,2.01
2023-05-11T06:03:29.493Z,1.61
2023-05-11T06:04:26.837Z,1.91
2023-05-11T06:05:26.724Z,1.52
2023-05-11T06:06:26.734Z,1.79
2023-05-11T06:07:26.701Z,2.30
2023-05-11T06:08:26.710Z,2.21
2023-05-11T06:09:26.686Z,1.58
2023-05-11T06:10:26.691Z,3.03
2023-05-11T06:11:26.694Z,2.48
2023-05-11T06:12:26.655Z,1.93
2023-05-11T06:13:26.676Z,2.12
2023-05-11T06:14:26.675Z,2.71
2023-05-11T06:15:26.721Z,3.19
2023-05-11T06:16:26.698Z,3.43
2023-05-11T06:17:26.693Z,18.10
2023-05-11T06:18:26.684Z,4.39
2023-05-11T06:19:26.648Z,4.01
2023-05-11T06:20:26.633Z,3.93
2023-05-11T06:21:26.630Z,2.97
2023-05-11T06:22:26.588Z,2.97
2023-05-11T06:23:26.604Z,2.71
2023-05-11T06:24:26.589Z,2.53
2023-05-11T06:25:26.549Z,3.12
2023-05-11T06:26:26.547Z,2.66
2023-05-11T06:27:26.551Z,2.07
2023-05-11T06:28:26.577Z,2.34
2023-05-11T06:29:26.549Z,2.21
2023-05-11T06:30:26.532Z,2.18
2023-05-11T06:31:26.524Z,1.97
2023-05-11T06:32:26.540Z,2.19
2023-05-11T06:33:26.549Z,3.01
2023-05-11T06:34:26.524Z,2.11
2023-05-11T06:35:26.540Z,2.44
2023-05-11T06:36:26.531Z,3.10
2023-05-11T06:37:26.523Z,3.28
2023-05-11T06:38:26.542Z,1.81
2023-05-11T06:39:26.544Z,2.33
2023-05-11T06:40:26.520Z,2.47
2023-05-11T06:41:26.512Z,1.84
2023-05-11T06:42:26.579Z,1.93
2023-05-11T06:43:26.521Z,1.63
2023-05-11T06:44:26.507Z,2.16
2023-05-11T06:45:26.497Z,1.42
2023-05-11T06:46:26.541Z,1.27
2023-05-11T06:47:26.466Z,2.22
2023-05-11T06:48:26.447Z,2.09
2023-05-11T06:49:26.449Z,2.86
2023-05-11T06:50:27.670Z,1.38
2023-05-11T06:51:26.433Z,1.47
2023-05-11T06:52:26.435Z,1.78
2023-05-11T06:53:26.447Z,1.78
2023-05-11T06:54:26.405Z,1.67
2023-05-11T06:55:26.382Z,2.17
2023-05-11T06:56:26.484Z,1.79
2023-05-11T06:57:26.376Z,2.22
2023-05-11T06:58:26.369Z,2.04
2023-05-11T06:59:26.383Z,2.37
2023-05-11T07:00:26.385Z,2.21
2023-05-11T07:01:26.351Z,1.62
2023-05-11T07:02:26.380Z,1.63
2023-05-11T07:03:26.347Z,1.91
2023-05-11T07:04:26.407Z,3.63
2023-05-11T07:05:26.330Z,2.01
2023-05-11T07:06:26.297Z,2.76
2023-05-11T07:07:26.349Z,1.58
2023-05-11T07:08:26.338Z,2.40
2023-05-11T07:09:26.301Z,1.38
2023-05-11T07:10:26.378Z,2.09
2023-05-11T07:11:26.262Z,2.07
2023-05-11T07:12:26.281Z,1.28
2023-05-11T07:13:26.322Z,2.10
2023-05-11T07:14:26.387Z,1.45
2023-05-11T07:15:26.430Z,2.05
2023-05-11T07:16:26.586Z,2.05
2023-05-11T07:17:26.545Z,2.24
2023-05-11T07:18:26.687Z,1.94
2023-05-11T07:19:26.650Z,1.99
2023-05-11T07:20:26.725Z,2.38
2023-05-11T07:21:26.727Z,2.22
2023-05-11T07:22:26.850Z,1.66
2023-05-11T07:23:26.840Z,1.41
2023-05-11T07:24:26.909Z,1.70
2023-05-11T07:25:26.955Z,1.61
2023-05-11T07:26:26.984Z,2.21
2023-05-11T07:27:26.996Z,2.41
2023-05-11T07:28:27.024Z,1.82
2023-05-11T07:29:27.035Z,2.67
2023-05-11T07:30:27.154Z,1.85
2023-05-11T07:31:27.196Z,2.36
2023-05-11T07:32:27.637Z,2.68
2023-05-11T07:33:27.219Z,2.58
2023-05-11T07:34:27.278Z,2.68
2023-05-11T07:35:27.305Z,2.46
2023-05-11T07:36:27.292Z,2.17
2023-05-11T07:37:27.308Z,2.18
2023-05-11T07:38:27.359Z,2.47
2023-05-11T07:39:27.367Z,2.69
2023-05-11T07:40:27.433Z,2.33
2023-05-11T07:41:27.486Z,2.03
2023-05-11T07:42:27.482Z,1.87
2023-05-11T07:43:27.553Z,1.62
2023-05-11T07:44:28.492Z,1.59
2023-05-11T07:45:27.539Z,1.81
2023-05-11T07:46:27.541Z,1.94
2023-05-11T07:47:27.621Z,2.63
2023-05-11T07:48:27.574Z,2.22
2023-05-11T07:50:27.968Z,2.43
2023-05-11T07:51:27.755Z,2.17
2023-05-11T07:52:27.836Z,2.34
2023-05-11T07:53:27.885Z,1.62
2023-05-11T07:54:27.986Z,1.24
2023-05-11T07:55:27.998Z,1.70
2023-05-11T07:56:28.077Z,2.04
2023-05-11T07:57:28.101Z,1.45
2023-05-11T07:58:28.115Z,1.75
2023-05-11T07:59:28.151Z,1.41
2023-05-11T08:00:28.190Z,1.30
2023-05-11T08:01:28.148Z,1.20
2023-05-11T08:02:28.309Z,1.35
2023-05-11T08:03:28.271Z,1.53
2023-05-11T08:04:28.196Z,1.72
2023-05-11T08:05:28.210Z,1.41
2023-05-11T08:06:28.216Z,1.55
2023-05-11T08:07:28.175Z,1.13
2023-05-11T08:08:28.234Z,1.13
2023-05-11T08:09:28.217Z,1.15
2023-05-11T08:10:28.244Z,1.16
2023-05-11T08:11:28.265Z,1.24
2023-05-11T08:12:28.331Z,1.00
2023-05-11T08:13:28.363Z,0.93
2023-05-11T08:14:28.430Z,1.19
2023-05-11T08:15:28.467Z,1.23
2023-05-11T08:16:28.570Z,0.83
2023-05-11T08:17:28.574Z,1.18
2023-05-11T08:18:28.661Z,1.51
2023-05-11T08:19:28.680Z,1.13
2023-05-11T08:20:28.684Z,1.07
2023-05-11T08:21:28.727Z,1.13
2023-05-11T08:22:28.790Z,1.10
2023-05-11T08:23:28.808Z,0.95
2023-05-11T08:24:28.815Z,0.80
2023-05-11T08:25:28.861Z,0.93
2023-05-11T08:26:28.924Z,0.90
2023-05-11T08:27:28.954Z,1.20
2023-05-11T08:28:29.011Z,0.83
2023-05-11T08:29:29.045Z,0.83
2023-05-11T08:30:29.140Z,1.16
2023-05-11T08:31:29.222Z,0.95
2023-05-11T08:32:29.270Z,1.19
2023-05-11T08:34:29.336Z,0.85
2023-05-11T08:35:29.270Z,1.12
2023-05-11T08:36:29.299Z,1.12
2023-05-11T08:37:29.304Z,1.63
2023-05-11T08:38:29.293Z,1.34
2023-05-11T08:39:43.709Z,1.74
2023-05-11T08:40:30.237Z,1.47
2023-05-11T08:41:29.257Z,1.67
2023-05-11T08:42:29.226Z,1.50
2023-05-11T08:43:29.228Z,1.69
2023-05-11T08:44:29.192Z,1.63
2023-05-11T08:45:29.205Z,2.24
2023-05-11T08:46:29.215Z,1.93
2023-05-11T08:47:29.238Z,1.90
2023-05-11T08:48:29.204Z,2.05
2023-05-11T08:49:29.235Z,2.37
2023-05-11T08:50:29.199Z,1.83
2023-05-11T08:51:29.195Z,2.37
2023-05-11T08:52:29.214Z,2.58
2023-05-11T08:53:29.197Z,2.69
2023-05-11T08:54:29.167Z,3.33
2023-05-11T08:55:29.123Z,2.30
2023-05-11T08:56:29.139Z,1.98
2023-05-11T08:57:29.114Z,2.88
2023-05-11T08:58:29.150Z,2.32
2023-05-11T08:59:29.166Z,2.95
2023-05-11T09:00:29.134Z,2.41
2023-05-11T09:01:29.299Z,2.84
2023-05-11T09:02:29.224Z,2.09
2023-05-11T09:03:29.602Z,2.44
2023-05-11T09:04:29.230Z,2.35
2023-05-11T09:05:29.374Z,1.98
2023-05-11T09:06:29.370Z,2.01
2023-05-11T09:07:29.446Z,2.38
2023-05-11T09:08:29.525Z,1.58
2023-05-11T09:09:29.519Z,2.20
2023-05-11T09:10:29.549Z,2.30
2023-05-11T09:11:29.654Z,2.19
2023-05-11T09:12:29.691Z,2.12
2023-05-11T09:13:29.687Z,1.88
2023-05-11T09:14:29.672Z,1.59
2023-05-11T09:15:36.760Z,1.59
2023-05-11T09:16:36.719Z,1.95
2023-05-11T09:17:30.724Z,1.46
2023-05-11T09:18:29.759Z,1.52
2023-05-11T09:19:29.665Z,1.04
2023-05-11T09:20:29.681Z,1.64
2023-05-11T09:21:29.628Z,1.20
2023-05-11T09:22:31.414Z,1.32
2023-05-11T09:23:29.592Z,1.61
2023-05-11T09:24:29.623Z,1.66
2023-05-11T09:25:29.609Z,1.33
2023-05-11T09:26:29.630Z,1.50
2023-05-11T09:27:29.599Z,1.57
2023-05-11T09:29:30.897Z,1.38
2023-05-11T09:30:29.614Z,1.44
2023-05-11T09:31:29.592Z,1.71
2023-05-11T09:32:29.596Z,2.17
2023-05-11T09:33:29.573Z,2.25
2023-05-11T09:34:29.637Z,1.65
2023-05-11T09:35:29.506Z,2.61
2023-05-11T09:36:29.564Z,3.50
2023-05-11T09:37:29.531Z,2.76
2023-05-11T09:38:29.523Z,2.49
2023-05-11T09:39:38.231Z,2.60
2023-05-11T09:40:33.955Z,2.84
2023-05-11T09:41:34.927Z,2.89
2023-05-11T09:42:30.485Z,3.22
2023-05-11T09:43:29.506Z,3.18
2023-05-11T09:44:29.465Z,4.00
2023-05-11T09:45:29.439Z,3.39
2023-05-11T09:46:29.498Z,3.16
2023-05-11T09:47:29.517Z,4.41
2023-05-11T09:48:29.478Z,4.18
2023-05-11T09:49:29.452Z,4.26
2023-05-11T09:50:29.431Z,3.68
2023-05-11T09:51:29.424Z,4.22
2023-05-11T09:52:29.453Z,3.75
2023-05-11T09:53:29.452Z,2.91
2023-05-11T09:54:29.526Z,3.16
2023-05-11T09:55:29.559Z,2.96
2023-05-11T09:56:29.580Z,2.78
2023-05-11T09:57:29.768Z,3.34
2023-05-11T09:58:29.744Z,2.69
2023-05-11T09:59:29.743Z,2.56
2023-05-11T10:00:29.776Z,3.63
2023-05-11T10:01:29.839Z,2.07
2023-05-11T10:02:30.270Z,2.41
2023-05-11T10:03:29.917Z,2.10
2023-05-11T10:04:30.089Z,2.60
2023-05-11T10:05:29.891Z,3.63
2023-05-11T10:06:30.616Z,1.63
2023-05-11T10:07:29.928Z,3.44
2023-05-11T10:08:29.944Z,2.44
2023-05-11T10:09:29.991Z,2.34
2023-05-11T10:10:29.992Z,1.89
2023-05-11T10:11:30.034Z,2.08
2023-05-11T10:12:30.053Z,3.08
2023-05-11T10:13:30.161Z,3.58
2023-05-11T10:14:30.152Z,2.70
2023-05-11T10:15:30.168Z,2.45
2023-05-11T10:16:30.195Z,2.14
2023-05-11T10:17:30.240Z,2.33
2023-05-11T10:18:30.296Z,2.19
2023-05-11T10:19:30.188Z,2.84
2023-05-11T10:20:30.221Z,2.42
2023-05-11T10:21:30.212Z,3.34
2023-05-11T10:22:30.318Z,2.15
2023-05-11T10:23:30.226Z,2.15
2023-05-11T10:24:30.263Z,2.13
2023-05-11T10:25:30.287Z,2.02
2023-05-11T10:26:30.277Z,2.92
2023-05-11T10:27:30.296Z,2.31
2023-05-11T10:29:31.151Z,2.20
2023-05-11T10:30:30.351Z,2.29
2023-05-11T10:31:30.400Z,2.05
2023-05-11T10:32:30.397Z,2.07
2023-05-11T10:33:30.438Z,2.31
2023-05-11T10:34:30.657Z,2.46
2023-05-11T10:35:30.432Z,2.71
2023-05-11T10:36:30.442Z,2.74
2023-05-11T10:37:30.519Z,2.63
2023-05-11T10:38:30.492Z,3.20
2023-05-11T10:39:30.691Z,4.61
2023-05-11T10:40:30.595Z,6.63
2023-05-11T10:41:30.635Z,8.47
2023-05-11T10:42:30.706Z,8.59
2023-05-11T10:43:30.698Z,8.41
2023-05-11T10:44:31.141Z,7.58
2023-05-11T10:45:30.808Z,8.22
2023-05-11T10:46:30.839Z,7.49
2023-05-11T10:47:30.810Z,8.20
2023-05-11T10:48:30.799Z,7.76
2023-05-11T10:49:30.847Z,7.40
2023-05-11T10:50:30.802Z,7.84
2023-05-11T10:51:30.819Z,5.56
2023-05-11T10:52:30.827Z,5.57
2023-05-11T10:53:30.828Z,8.04
2023-05-11T10:54:30.832Z,6.86
2023-05-11T10:55:30.974Z,6.62
2023-05-11T10:56:30.943Z,6.89
2023-05-11T10:57:32.218Z,6.03
2023-05-11T10:58:31.207Z,5.08
2023-05-11T10:59:31.654Z,4.03
2023-05-11T11:00:31.420Z,6.56
2023-05-11T11:01:31.419Z,6.34
2023-05-11T11:02:31.448Z,5.39
2023-05-11T11:03:31.524Z,4.58
2023-05-11T11:04:31.625Z,5.44
2023-05-11T11:05:31.630Z,4.39
2023-05-11T11:06:31.634Z,5.52
2023-05-11T11:07:31.685Z,5.14
2023-05-11T11:08:31.768Z,4.29
2023-05-11T11:09:32.249Z,4.76
2023-05-11T11:10:31.871Z,4.57
2023-05-11T11:11:31.928Z,4.49
2023-05-11T11:12:31.975Z,5.35
2023-05-11T11:13:32.089Z,4.83
2023-05-11T11:14:32.142Z,3.08
2023-05-11T11:15:32.254Z,4.97
2023-05-11T11:16:32.307Z,4.06
2023-05-11T11:17:32.491Z,4.12
2023-05-11T11:18:32.392Z,2.96
2023-05-11T11:19:32.452Z,4.26
2023-05-11T11:20:32.697Z,3.07
2023-05-11T11:21:32.638Z,3.72
2023-05-11T11:22:32.701Z,3.91
2023-05-11T11:23:32.705Z,2.96
2023-05-11T11:24:32.771Z,3.07
2023-05-11T11:25:33.167Z,3.42
2023-05-11T11:26:32.861Z,3.77
2023-05-11T11:27:32.906Z,3.71
2023-05-11T11:28:32.965Z,3.90
2023-05-11T11:29:33.034Z,3.46
2023-05-11T11:30:33.158Z,3.79
2023-05-11T11:31:33.216Z,3.80
2023-05-11T11:32:33.064Z,5.11
2023-05-11T11:33:33.052Z,5.64
2023-05-11T11:34:33.053Z,4.61
2023-05-11T11:35:33.223Z,3.93
2023-05-11T11:36:33.044Z,4.43
2023-05-11T11:37:33.041Z,4.48
2023-05-11T11:38:33.120Z,5.42
2023-05-11T11:39:33.139Z,4.02
2023-05-11T11:40:39.593Z,3.92
2023-05-11T11:41:34.186Z,2.71
2023-05-11T11:42:33.163Z,3.61
2023-05-11T11:43:33.285Z,3.60
2023-05-11T11:44:33.152Z,3.46
2023-05-11T11:45:33.214Z,3.17
2023-05-11T11:46:33.146Z,3.50
2023-05-11T11:47:33.707Z,3.21
2023-05-11T11:48:33.151Z,3.27
2023-05-11T11:49:33.672Z,3.66
2023-05-11T11:50:33.190Z,3.65
2023-05-11T11:51:33.274Z,3.49
2023-05-11T11:52:33.312Z,3.62
2023-05-11T11:53:33.341Z,2.81
2023-05-11T11:54:33.384Z,2.95
2023-05-11T11:55:33.459Z,3.09
2023-05-11T11:56:33.501Z,3.30
2023-05-11T11:57:33.534Z,2.45
2023-05-11T11:58:33.554Z,2.45
2023-05-11T11:59:33.641Z,5.16
2023-05-11T12:00:33.643Z,2.57
2023-05-11T12:01:33.708Z,2.84
2023-05-11T12:02:33.791Z,2.81
2023-05-11T12:03:33.829Z,3.85
2023-05-11T12:04:33.892Z,3.72
2023-05-11T12:05:33.860Z,2.65
2023-05-11T12:06:33.866Z,2.21
2023-05-11T12:07:33.903Z,3.88
2023-05-11T12:08:33.957Z,3.17
2023-05-11T12:09:34.056Z,2.38
2023-05-11T12:10:34.041Z,2.22
2023-05-11T12:11:34.080Z,2.54
2023-05-11T12:12:34.081Z,2.23
2023-05-11T12:13:34.146Z,1.87
2023-05-11T12:14:34.170Z,2.23
2023-05-11T12:15:34.218Z,2.07
2023-05-11T12:16:34.287Z,1.79
2023-05-11T12:17:34.279Z,2.75
2023-05-11T12:18:34.345Z,1.67
2023-05-11T12:19:34.377Z,2.07
2023-05-11T12:20:34.384Z,2.58
2023-05-11T12:21:34.435Z,2.17
2023-05-11T12:22:34.487Z,1.97
2023-05-11T12:23:34.501Z,2.18
2023-05-11T12:24:34.519Z,1.62
2023-05-11T12:25:34.561Z,1.96
2023-05-11T12:26:34.664Z,3.51
2023-05-11T12:27:34.635Z,2.56
2023-05-11T12:28:34.633Z,2.30
2023-05-11T12:29:34.646Z,3.00
2023-05-11T12:30:34.610Z,2.56
2023-05-11T12:31:34.722Z,2.67
2023-05-11T12:32:34.732Z,1.96
2023-05-11T12:33:34.778Z,1.72
2023-05-11T12:34:34.812Z,2.00
2023-05-11T12:35:34.833Z,2.03
2023-05-11T12:36:34.865Z,2.17
2023-05-11T12:37:34.926Z,1.88
2023-05-11T12:38:34.984Z,1.11
2023-05-11T12:39:34.998Z,1.05
2023-05-11T12:40:35.025Z,1.05
2023-05-11T12:41:35.082Z,1.30
2023-05-11T12:42:35.378Z,0.98
2023-05-11T12:43:35.110Z,1.11
2023-05-11T12:44:35.174Z,1.25
2023-05-11T12:45:35.202Z,1.49
2023-05-11T12:46:35.261Z,1.30
2023-05-11T12:47:35.287Z,0.98
2023-05-11T12:48:35.254Z,1.19
2023-05-11T12:49:35.308Z,0.77
2023-05-11T12:50:35.358Z,0.97
2023-05-11T12:51:35.382Z,0.71
2023-05-11T12:52:35.412Z,1.19
2023-05-11T12:53:35.433Z,1.30
2023-05-11T12:54:35.507Z,1.48
2023-05-11T12:55:35.488Z,1.29
2023-05-11T12:56:35.478Z,1.00
2023-05-11T12:57:35.496Z,1.25
2023-05-11T12:58:35.494Z,1.09
2023-05-11T12:59:35.520Z,1.26
2023-05-11T13:00:35.519Z,0.92
2023-05-11T13:01:35.582Z,0.90
2023-05-11T13:02:35.600Z,1.11
2023-05-11T13:03:35.607Z,1.08
2023-05-11T13:04:35.544Z,1.34
2023-05-11T13:05:35.584Z,0.95
2023-05-11T13:06:35.614Z,0.73
2023-05-11T13:07:35.664Z,1.20
2023-05-11T13:08:35.669Z,0.88
2023-05-11T13:09:35.716Z,0.91
2023-05-11T13:10:35.769Z,0.89
2023-05-11T13:11:35.791Z,0.77
2023-05-11T13:12:35.813Z,1.35
2023-05-11T13:13:35.921Z,0.69
2023-05-11T13:14:35.925Z,1.15
2023-05-11T13:15:36.008Z,0.89
2023-05-11T13:16:36.068Z,0.94
2023-05-11T13:17:36.138Z,1.50
2023-05-11T13:18:36.240Z,0.91
2023-05-11T13:19:36.258Z,1.22
2023-05-11T13:20:36.271Z,0.94
2023-05-11T13:21:36.389Z,0.98
2023-05-11T13:22:36.450Z,0.96
2023-05-11T13:23:36.476Z,0.74